Home > Products > Valid Products > MTR

000
SAUS45 KLKN 021354
MTRP68
METAR KP68 021353Z AUTO 19004KT 10/M02 A3013 RMK AO1 SLP131
T01001017





000
SAUS45 KLKN 021254
MTRP68
METAR KP68 021253Z AUTO 22007KT 10/M02 A3011 RMK AO1 SLP118
T01001022





000
SAUS45 KLKN 021155
MTRP68
METAR KP68 021153Z AUTO 19005KT 09/M02 A3010 RMK AO1 SLP112
T00941017 10128 20089 50001





000
SAUS45 KLKN 021054
MTRP68
METAR KP68 021053Z AUTO 18005KT 11/M02 A3010 RMK AO1 SLP113
T01111017





000
SAUS45 KLKN 020954
MTRP68
METAR KP68 020953Z AUTO 21006KT 12/M02 A3011 RMK AO1 SLP114
T01171017





000
SAUS45 KLKN 020854
MTRP68
METAR KP68 020853Z AUTO 19004KT 13/M02 A3010 RMK AO1 SLP108
T01281017 58002





000
SAUS45 KLKN 020755
MTRP68
METAR KP68 020753Z AUTO 18005KT 12/M01 A3011 RMK AO1 SLP116
T01221011 403000067





000
SAUS45 KLKN 020654
MTRP68
METAR KP68 020653Z AUTO 17003KT 11/M01 A3010 RMK AO1 SLP120
T01111006





000
SAUS45 KLKN 020555
MTRP68
METAR KP68 020553Z AUTO 21003KT 11/00 A3011 RMK AO1 SLP122 T01110000
10294 20111 51009





000
SAUS45 KLKN 020455
MTRP68
METAR KP68 020453Z AUTO 17003KT 15/01 A3010 RMK AO1 SLP120 T01500006





000
SAUS45 KLKN 020355
MTRP68
METAR KP68 020353Z AUTO 13004KT 18/02 A3010 RMK AO1 SLP119 T01780017





000
SAUS45 KLKN 020355
MTRP68
METAR KP68 020353Z AUTO 13004KT 18/02 A3010 RMK AO1 SLP119 T01780017





000
SAUS45 KLKN 020255
MTRP68
METAR KP68 020253Z AUTO 05003KT 22/03 A3007 RMK AO1 SLP112 T02170028
53006





000
SAUS45 KLKN 020155
MTRP68
METAR KP68 020153Z AUTO 03007KT 26/02 A3005 RMK AO1 SLP109 T02560017





000
SAUS45 KLKN 020055
MTRP68
METAR KP68 020053Z AUTO 01011KT 28/M01 A3005 RMK AO1 SLP103
T02831006





000
SAUS45 KLKN 012354
MTRP68
METAR KP68 012353Z AUTO 02010KT 30/M01 A3005 RMK AO1 SLP095
T03001011 10300 20233 56016





000
SAUS45 KLKN 012255
MTRP68
METAR KP68 012253Z AUTO 29/M02 A3006 RMK AO1 SLP102 T02891017





000
SAUS45 KLKN 012154
MTRP68
METAR KP68 012153Z AUTO 36006KT 28/M01 A3008 RMK AO1 SLP110
T02781011





000
SAUS45 KLKN 012057 COR
MTRP68
METAR KP68 012053Z AUTO VRB05KT 28/00 A3011 RMK AO1 SLP119 T02780000
57014





000
SAUS45 KLKN 012056 COR
MTRP68
METAR KP68 012053Z AUTO VRB05KT 28/00 A3011 RMK AO1 SLP119 T02780000
57014





000
SAUS45 KLKN 012055 COR
MTRP68
METAR KP68 012053Z AUTO VRB05KT 28/00 A3011 RMK AO1 SLP119 T02780000
57014





000
SAUS45 KLKN 011955
MTRP68
METAR KP68 011953Z AUTO 05008KT 27/00 A3012 RMK AO1 SLP129 T02670000





000
SAUS45 KLKN 011855
MTRP68
METAR KP68 011853Z AUTO 00000KT 24/00 A3015 RMK AO1 SLP136 T02440000





000
SAUS45 KLKN 011754
MTRP68
METAR KP68 011753Z AUTO VRB03KT 24/01 A3016 RMK AO1 SLP139 T02390006
10239 20072 58001





000
SAUS45 KLKN 011654
MTRP68
METAR KP68 011653Z AUTO VRB03KT 22/01 A3016 RMK AO1 SLP141 T02170011





000
SAUS45 KLKN 011554
MTRP68
METAR KP68 011553Z AUTO 00000KT 18/M01 A3016 RMK AO1 SLP144
T01781006





000
SAUS45 KLKN 011454
MTRP68
METAR KP68 011453Z AUTO 00000KT 13/M01 A3016 RMK AO1 SLP149
T01331006 51014





000
SAUS45 KLKN 011354
MTRP68
METAR KP68 011353Z AUTO 19003KT 08/M01 A3016 RMK AO1 SLP148
T00781011





000
SAUS45 KLKN 011255
MTRP68
METAR KP68 011253Z AUTO 19005KT 07/M02 A3013 RMK AO1 SLP136
T00721017





000
SAUS45 KLKN 011154
MTRP68
METAR KP68 011153Z AUTO 20008KT 09/M01 A3011 RMK AO1 SLP123
T00941011 10117 20067 56001





000
SAUS45 KLKN 011054
MTRP68
METAR KP68 011053Z AUTO 18006KT 09/M02 A3012 RMK AO1 SLP124
T00891017





000
SAUS45 KLKN 010954
MTRP68
METAR KP68 010953Z AUTO 17006KT 09/M02 A3011 RMK AO1 SLP126
T00941017





000
SAUS45 KLKN 010858 COR
MTRP68
METAR KP68 010853Z AUTO 19006KT 09/M02 A3012 RMK AO1 SLP129
T00941022 50005





000
SAUS45 KLKN 010857 COR
MTRP68
MET"< xkQyf3f3f3f3f3f3f3f3f3f3f3f3f3f
wEjf3f3f3f3f3f3f3f3f3f3f3f3f3f
REQ RNOMTRP68





000
SAUS45 KLKN 010855 COR
MTRP68
METAR KP68 010853Z AUTO 19006KT 09/M02 A3012 RMK AO1 SLP129
T00941022 50005





000
SAUS45 KLKN 010754
MTRP68
METAR KP68 010753Z AUTO 00000KT 09/M02 A3012 RMK AO1 SLP134
T00891017 402720067





000
SAUS45 KLKN 010654
MTRP68
METAR KP68 010653Z AUTO 00000KT 11/M02 A3011 RMK AO1 SLP128
T01061017





000
SAUS45 KLKN 010555
MTRP68
METAR KP68 010553Z AUTO 16003KT 12/M01 A3010 RMK AO1 SLP125
T01221011 10272 20117 51012





000
SAUS45 KLKN 010454
MTRP68
METAR KP68 010453Z AUTO 19004KT 14/M02 A3009 RMK AO1 SLP121
T01441017





000
SAUS45 KLKN 010354
MTRP68
METAR KP68 010353Z AUTO 19004KT 16/M01 A3008 RMK AO1 SLP117
T01611006





000
SAUS45 KLKN 010256
MTRP68
METAR KP68 010253Z AUTO 06004KT 19/01 A3006 RMK AO1 SLP113 T01890011
53006





000
SAUS45 KLKN 010154
MTRP68
METAR KP68 010153Z AUTO 36006KT 24/M02 A3003 RMK AO1 SLP100
T02441022





000
SAUS45 KLKN 010154
MTRP68
METAR KP68 010153Z AUTO 36006KT 24/M02 A3003 RMK AO1 SLP100
T02441022





000
SAUS45 KLKN 010055
MTRP68
METAR KP68 010053Z AUTO 24007KT 26/M03 A3003 RMK AO1 SLP098
T02611033





000
SAUS45 KLKN 312355
MTRP68
METAR KP68 312353Z AUTO 25007KT 230V300 27/M03 A3004 RMK AO1 SLP099
T02671028 10272 20200 56016





000
SAUS45 KLKN 312255
MTRP68
METAR KP68 312253Z AUTO 26012G17KT 27/M02 A3005 RMK AO1 SLP097
T02721017





000
SAUS45 KLKN 312155
MTRP68
METAR KP68 312153Z AUTO 29010G15KT 26/M02 A3007 RMK AO1 SLP098
T02611017





000
SAUS45 KLKN 312054
MTRP68
METAR KP68 312053Z AUTO 25007KT 25/00 A3010 RMK AO1 SLP113 T02500000
56012





000
SAUS45 KLKN 311955
MTRP68
METAR KP68 311953Z AUTO 20006G18KT 23/00 A3010 RMK AO1 SLP113
T02330000





000
SAUS45 KLKN 311854
MTRP68
METAR KP68 311853Z AUTO 11008KT 22/01 A3013 RMK AO1 SLP122 T02220011





000
SAUS45 KLKN 311754
MTRP68
METAR KP68 311753Z AUTO 09006KT 21/00 A3014 RMK AO1 SLP134 T02060000
10211 20067 50001





000
SAUS45 KLKN 311654
MTRP68
METAR KP68 311653Z AUTO VRB03KT 19/01 A3014 RMK AO1 SLP133 T01890011





000
SAUS45 KLKN 311554
MTRP68
METAR KP68 311553Z AUTO 00000KT 18/01 A3014 RMK AO1 SLP129 T01780006





000
SAUS45 KLKN 311454
MTRP68
METAR KP68 311453Z AUTO 00000KT 13/00 A3014 RMK AO1 SLP133 T01330000
51014





000
SAUS45 KLKN 311354
MTRP68
METAR KP68 311353Z AUTO 19004KT 08/M01 A3013 RMK AO1 SLP134
T00831011





000
SAUS45 KLKN 311254
MTRP68
METAR KP68 311253Z AUTO 00000KT 08/M01 A3010 RMK AO1 SLP121
T00831011





000
SAUS45 KLKN 311155
MTRP68
METAR KP68 311153Z AUTO 26006KT 09/M01 A3009 RMK AO1 SLP111
T00891006 10206 20089 51010





000
SAUS45 KLKN 311054
MTRP68
METAR KP68 311053Z AUTO 07006KT 11/00 A3007 RMK AO1 SLP100 T01110000





000
SAUS45 KLKN 310954
MTRP68
METAR KP68 310953Z AUTO 33006KT 15/M01 A3007 RMK AO1 SLP091
T01501011





000
SAUS45 KLKN 310854
MTRP68
METAR KP68 310853Z AUTO 12003KT 13/01 A3005 RMK AO1 SLP088 T01330006
52012





000
SAUS45 KLKN 310754
MTRP68
METAR KP68 310753Z AUTO 27010KT 16/M02 A3004 RMK AO1 SLP082
T01611022 403060139





000
SAUS45 KLKN 310655
MTRP68
METAR KP68 310653Z AUTO 28010KT 18/M02 A3002 RMK AO1 SLP073
T01781022





000
SAUS45 KLKN 310555
MTRP68
METAR KP68 310553Z AUTO 00000KT 15/M02 A3001 RMK AO1 SLP077
T01501022 10289 20150 53005





000
SAUS45 KLKN 310454
MTRP68
METAR KP68 310453Z AUTO 00000KT 18/M03 A3000 RMK AO1 SLP075
T01781028





000
SAUS45 KLKN 310354
MTRP68
METAR KP68 310353Z AUTO 12005KT 20/M02 A2999 RMK AO1 SLP074
T02001022





000
SAUS45 KLKN 310254
MTRP68
METAR KP68 310253Z AUTO 31006KT 22/M04 A2999 RMK AO1 SLP073
T02221039 53005





000
SAUS45 KLKN 310154
MTRP68
METAR KP68 310153Z AUTO 32011KT 24/M05 A2998 RMK AO1 PK WND
29026/0108 SLP064 T02441050





000
SAUS45 KLKN 310055
MTRP68
METAR KP68 310053Z AUTO 29018G23KT 27/M09 A2997 RMK AO1 PK WND
28026/0014 SLP058 T02721094





000
SAUS45 KLKN 302354
MTRP68
METAR KP68 302353Z AUTO 28017G24KT 28/M10 A2997 RMK AO1 PK WND
27029/2301 SLP054 T02831100 10306 20261 56010





000
SAUS45 KLKN 302255
MTRP68
METAR KP68 302253Z AUTO 27018G26KT 29/M09 A2998 RMK AO1 PK WND
28027/2237 SLP059 T02941089





000
SAUS45 KLKN 302155
MTRP68
METAR KP68 302153Z AUTO 27012G23KT 30/M08 A2998 RMK AO1 SLP057
T03001083





000
SAUS45 KLKN 302055
MTRP68
METAR KP68 302053Z AUTO 28015G26KT 30/M04 A3001 RMK AO1 PK WND
28026/2046 SLP067 T03001044 58020





000
SAUS45 KLKN 301954
MTRP68
METAR KP68 301953Z AUTO 26013G22KT 28/M05 A3003 RMK AO1 PK WND
26026/1908 SLP078 T02781050





000
SAUS45 KLKN 301855
MTRP68
METAR KP68 301853Z AUTO 27011G21KT 28/M05 A3006 RMK AO1 SLP087
T02831050





000
SAUS45 KLKN 301757 COR
MTRP68
METAR KP68 301753Z AUTO 24015G20KT 26/M06 A3008 RMK AO1 SLP096
T02611056 10261 20161 58006





000
SAUS45 KLKN 301756
MTRP68
RNOMTRP68 ALL
TTAA00 KP68 301755 COR
METAR KP68 301753Z AUTO 24015G20KT 26/M06 A3008 RMK AO1 SLP096
T02611056 10261 20161 58006





000
SAUS45 KLKN 301654
MTRP68
METAR KP68 301653Z AUTO 03003KT 23/M01 A3010 RMK AO1 SLP103
T02331006





000
SAUS45 KLKN 301554
MTRP68
METAR KP68 301553Z AUTO 11003KT 20/02 A3011 RMK AO1 SLP110 T02000017





000
SAUS45 KLKN 301454
MTRP68
METAR KP68 301453Z AUTO 16005KT 18/02 A3010 RMK AO1 SLP107 T01780022
51008





    US Dept of Commerce
    National Oceanic and Atmospheric Administration
    National Weather Service
    1325 East West Highway
    Silver Spring, MD 20910
    Page Author: NWS Internet Services Team
Disclaimer
Information Quality
Credits
Glossary
Privacy Policy
Freedom of Information Act (FOIA)
About Us
Career Opportunities